• Join FlightAware (Why Join?)
  • Login
  • US Flag 
11:49PM EDT


 

Airport Tracker/Info


-or-


 

Live Flight TrackerFlight Track Log ✈ N665LF ✈ 04-Aug-2013 ✈ KBED - KACK

Flight Track Log - Related Links

Times and Time Zones

All times are in EDT time to prevent confusion due to time zone crossing. See the N665LF flight status page for this flight to view local times or setup timezone preferences in your user account.

Time Position Orientation Groundspeed Altitude Reporting Facility
EDT Latitude Longitude Course Direction KTS MPH feet Rate Location/Type
03:05PM 42.4667 -71.3167 216° Southwest 140 161 1,000  Level KA90
03:06PM 42.4500 -71.3333 216° Southwest 127 146 1,800 900 Climbing KA90
03:07PM 42.4167 -71.3167 160° South 156 180 2,700 960 Climbing KA90
03:08PM 42.3833 -71.2667 132° Southeast 161 185 3,800 1,020 Climbing KA90
03:09PM 42.3500 -71.2333 144° Southeast 164 189 4,800 900 Climbing KA90
03:10PM 42.3167 -71.1833 132° Southeast 164 189 5,600 780 Climbing KA90
03:11PM 42.2833 -71.1333 132° Southeast 168 193 6,400 660 Climbing KA90
03:12PM 42.2667 -71.0833 114° Southeast 173 199 7,000 300 Climbing KA90
03:13PM 42.2167 -71.0333 143° Southeast 201 231 7,100  Climbing KA90
03:14PM 42.1833 -70.9833 132° Southeast 203 234 7,100 -60 Level KA90
03:15PM 42.1500 -70.9333 132° Southeast 203 234 7,000 -120 Descending KA90
03:17PM 42.1004 -70.8843 144° Southeast  Level Estimated
03:24PM 41.8367 -70.6248 144° Southeast  Level Estimated
03:25PM 41.7989 -70.5879 144° Southeast  Level Estimated
03:26PM 41.7612 -70.5511 144° Southeast  Level Estimated
03:27PM 41.7234 -70.5143 144° Southeast  Level Estimated
03:28PM 41.6857 -70.4775 144° Southeast  Level Estimated
03:29PM 41.6479 -70.4408 144° Southeast  Level Estimated
03:30PM 41.6101 -70.4041 144° Southeast  Level Estimated
03:31PM 41.5723 -70.3675 144° Southeast  Level Estimated
03:32PM 41.5345 -70.3309 144° Southeast  Level Estimated
03:33PM 41.4967 -70.2943 144° Southeast  Level Estimated
03:34PM 41.4588 -70.2578 144° Southeast  Level Estimated
03:35PM 41.4210 -70.2214 144° Southeast  Level Estimated
03:36PM 41.3831 -70.1850 144° Southeast  Level Estimated
03:37PM 41.3452 -70.1486 144° Southeast  Level Estimated
03:38PM 41.3074 -70.1122 144° Southeast  Level Estimated
03:39PM 41.2695 -70.0760 144° Southeast  Level Estimated
03:40PM 41.2531 -70.0603 144° Southeast  Level Estimated
03:41PM 41.2531 -70.0603 72° East  Level Estimated
03:42PM 41.2531 -70.0603 72° East  Level Estimated
03:43PM 41.2531 -70.0603 72° East  Level Estimated
03:44PM 41.2531 -70.0603 72° East  Level Estimated
03:45PM 41.2531 -70.0603 72° East  Level Estimated
03:46PM 41.2531 -70.0603 72° East  Level Estimated
03:47PM 41.2531 -70.0603 72° East  Level Estimated